• Join FlightAware (Why Join?)
  • Login
  • US Flag 
12:12PM EDT


 

Airport Tracker/Info


-or-


 

Live Flight TrackerFlight Track Log ✈ AWE3397 ✈ 16-Apr-2013 ✈ KMHT - KPHL

Flight Track Log - Related Links

Times and Time Zones

All times are in EDT time to prevent confusion due to time zone crossing. See the AWE3397 flight status page for this flight to view local times or setup timezone preferences in your user account.

Time Position Orientation Groundspeed Altitude Reporting Facility
EDT Latitude Longitude Course Direction KTS MPH feet Rate Location/Type
05:29AM 42.9500 -71.4167 270° West 168 193 1,200  Level KA90
05:30AM 42.9833 -71.4000 20° North 194 223 2,500 1,920 Climbing KA90
05:31AM 43.0125 -71.3894 15° North 245 282 3,700 2,940 Climbing Boston Center
05:32AM 42.9333 -71.7774 270° West  Level FlightAware Approximate
05:32AM 43.0589 -71.4511 316° Northwest 237 273 7,400  Level Boston Center
05:33AM 42.9480 -71.8901 285° West  Level FlightAware Approximate
05:33AM 43.0928 -71.5303 300° West 245 282 10,200  Level Boston Center
05:34AM 42.9500 -72.0052 270° West  Level FlightAware Approximate
05:34AM 43.1228 -71.6464 290° West 289 333 12,600  Level Boston Center
05:35AM 42.9501 -72.1207 270° West  Level FlightAware Approximate
05:35AM 43.1486 -71.7572 288° West 332 382 14,800  Level Boston Center
05:36AM 43.1514 -71.8967 272° West 342 394 18,100 2,520 Climbing Boston Center
05:37AM 43.1394 -72.0333 263° West 342 394 19,900 2,100 Climbing Boston Center
05:38AM 43.1233 -72.1697 261° West 359 413 22,300 1,920 Climbing Boston Center
05:39AM 43.1153 -72.3092 266° West 372 428 23,900 1,800 Climbing Boston Center
05:40AM 43.1028 -72.4514 263° West 372 428 25,900 1,020 Climbing Boston Center
05:41AM 43.0858 -72.5992 261° West 378 435 26,000  Climbing Boston Center
05:42AM 43.0419 -72.7214 244° Southwest 391 450 26,000  Level Boston Center
05:43AM 42.9917 -72.8517 242° Southwest 397 457 26,000  Level Boston Center
05:44AM 42.9408 -73.0017 245° Southwest 397 457 26,000  Level Boston Center
05:45AM 42.8900 -73.1344 242° Southwest 397 457 26,000  Level Boston Center
05:46AM 42.8414 -73.2642 243° Southwest 397 457 26,000  Level Boston Center
05:47AM 42.7922 -73.3964 243° Southwest 397 457 26,000  Level Boston Center
05:48AM 42.7411 -73.5283 242° Southwest 397 457 26,000  Level Boston Center
05:49AM 42.6897 -73.6603 242° Southwest 397 457 26,000  Level Boston Center
05:50AM 42.6383 -73.7806 240° Southwest 397 457 26,000  Level Boston Center
05:51AM 42.5889 -73.9178 244° Southwest 402 463 26,000  Level Boston Center
05:52AM 42.5369 -74.0547 243° Southwest 402 463 26,000  Level Boston Center
05:53AM 42.4847 -74.1914 243° Southwest 402 463 26,000  Level Boston Center
05:54AM 42.4306 -74.3275 242° Southwest 402 463 26,000  Level Boston Center
05:55AM 42.3847 -74.4469 243° Southwest 402 463 26,000 -60 Level Boston Center
05:56AM 42.3325 -74.5661 239° Southwest 407 468 25,900 -900 Descending Boston Center
05:57AM 42.2444 -74.7089 230° Southwest 412 474 24,200 -1,500 Descending Boston Center
05:59AM 42.0783 -74.9650 229° Southwest 402 463 20,900 -1,380 Descending New York Center
06:00AM 42.0078 -75.0719 228° Southwest 397 457 19,600 -960 Descending New York Center
06:01AM 41.9208 -75.1722 221° Southwest 389 448 19,000 -300 Descending New York Center
06:02AM 41.8372 -75.2364 210° Southwest 389 448 19,000 -540 Level New York Center
06:03AM 41.7383 -75.3186 212° Southwest 389 448 18,000 -1,440 Descending New York Center
06:04AM 41.6503 -75.3903 211° Southwest 389 448 16,200 -1,800 Descending New York Center
06:05AM 41.5600 -75.4617 211° Southwest 384 442 14,500 -1,800 Descending New York Center
06:06AM 41.4847 -75.5231 211° Southwest 376 433 12,700 -1,320 Descending New York Center
06:07AM 41.4031 -75.5864 210° Southwest 362 417 11,900 -360 Descending New York Center
06:08AM 41.3192 -75.6522 211° Southwest 357 411 12,000  Climbing New York Center
06:09AM 41.2175 -75.6889 195° South 342 394 12,000  Level New York Center
06:10AM 41.1197 -75.6900 180° South 348 400 12,000 -60 Level New York Center
06:11AM 41.0175 -75.6881 179° South 368 423 11,900  Descending New York Center
06:12AM 40.9156 -75.6864 179° South 368 423 12,000 60 Climbing New York Center
06:13AM 40.8344 -75.6858 180° South 346 398 12,100  Climbing New York Center
06:14AM 40.7383 -75.6872 181° South 316 364 12,100 -180 Level New York Center
06:15AM 40.6511 -75.6836 178° South 311 358 11,800 -540 Descending New York Center
06:16AM 40.5708 -75.6589 167° South 311 358 11,100 -720 Descending New York Center
06:17AM 40.5353 -75.5967 127° Southeast 311 358 10,700 -780 Descending FAA TRACON SMA TRACON (SMA)
06:17AM 40.5197 -75.5692 127° Southeast 316 364 10,400 -600 Descending FAA TRACON SMA TRACON (SMA)
06:17AM 40.5053 -75.5375 121° Southeast 314 361 10,300 -600 Descending FAA TRACON SMA TRACON (SMA)
06:18AM 40.4867 -75.5028 125° Southeast 311 358 10,000 -480 Descending FAA TRACON SMA TRACON (SMA)
06:18AM 40.4719 -75.4733 123° Southeast 306 352 10,000  Level FAA TRACON SMA TRACON (SMA)
06:18AM 40.4575 -75.4450 124° Southeast 306 352 10,000 -480 Level FAA TRACON SMA TRACON (SMA)
06:19AM 40.4317 -75.4214 145° Southeast 298 343 9,700 -780 Descending FAA TRACON SMA TRACON (SMA)
06:19AM 40.4083 -75.4089 158° South 287 330 9,500 -780 Descending FAA TRACON SMA TRACON (SMA)
06:19AM 40.3869 -75.3958 155° Southeast 276 318 9,200 -1,200 Descending FAA TRACON SMA TRACON (SMA)
06:20AM 40.3625 -75.3811 155° Southeast 267 307 8,700 -1,800 Descending FAA TRACON SMA TRACON (SMA)
06:20AM 40.3408 -75.3686 156° South 264 304 8,000 -2,280 Descending FAA TRACON SMA TRACON (SMA)
06:20AM 40.3150 -75.3544 157° South 264 304 7,200 -1,500 Descending FAA TRACON SMA TRACON (SMA)
06:21AM 40.2939 -75.3417 155° Southeast 265 305 7,000 -300 Descending FAA TRACON SMA TRACON (SMA)
06:21AM 40.2733 -75.3308 158° South 268 308 7,000  Level FAA TRACON SMA TRACON (SMA)
06:21AM 40.2458 -75.3350 187° South 246 283 7,000  Level FAA TRACON SMA TRACON (SMA)
06:22AM 40.2250 -75.3453 201° Southwest 262 302 7,000  Level FAA TRACON SMA TRACON (SMA)
06:22AM 40.2050 -75.3544 199° South 252 290 7,000 -300 Level FAA TRACON SMA TRACON (SMA)
06:22AM 40.1850 -75.3642 200° South 251 289 6,800 -900 Descending FAA TRACON SMA TRACON (SMA)
06:23AM 40.1600 -75.3761 200° South 248 285 6,400 -1,080 Descending FAA TRACON SMA TRACON (SMA)
06:23AM 40.1406 -75.3861 201° Southwest 246 283 6,100 -600 Descending FAA TRACON SMA TRACON (SMA)
06:23AM 40.1167 -75.3972 200° South 243 280 6,000 -180 Descending FAA TRACON SMA TRACON (SMA)
06:24AM 40.0972 -75.4058 199° South 244 281 6,000  Level FAA TRACON SMA TRACON (SMA)
06:24AM 40.0778 -75.4144 199° South 241 277 6,000  Level FAA TRACON SMA TRACON (SMA)
06:24AM 40.0561 -75.4175 186° South 250 288 6,000  Level FAA TRACON SMA TRACON (SMA)
06:25AM 40.0311 -75.4094 166° South 243 280 6,000  Level FAA TRACON SMA TRACON (SMA)
06:25AM 40.0075 -75.4025 167° South 250 288 6,000  Level FAA TRACON SMA TRACON (SMA)
06:25AM 39.9831 -75.3947 166° South 249 287 6,000  Level FAA TRACON SMA TRACON (SMA)
06:26AM 39.9653 -75.3889 166° South 213 245 6,000 120 Level FAA TRACON SMA TRACON (SMA)
06:26AM 39.9492 -75.3900 183° South 199 229 6,100  Climbing FAA TRACON SMA TRACON (SMA)
06:26AM 39.9333 -75.4061 218° Southwest 181 208 6,000 -180 Descending FAA TRACON SMA TRACON (SMA)
06:27AM 39.9258 -75.4219 238° Southwest 171 197 6,000  Level FAA TRACON SMA TRACON (SMA)
06:27AM 39.9211 -75.4422 253° West 189 217 6,000  Level FAA TRACON SMA TRACON (SMA)
06:27AM 39.9156 -75.4669 254° West 185 213 6,000 -180 Level FAA TRACON SMA TRACON (SMA)
06:28AM 39.9114 -75.4861 254° West 182 209 5,900 -600 Descending FAA TRACON SMA TRACON (SMA)
06:28AM 39.9064 -75.5033 249° West 181 208 5,600 -1,380 Descending FAA TRACON SMA TRACON (SMA)
06:28AM 39.9011 -75.5292 255° West 181 208 5,000 -1,500 Descending FAA TRACON SMA TRACON (SMA)
06:29AM 39.8947 -75.5469 245° Southwest 181 208 4,600 -1,200 Descending FAA TRACON SMA TRACON (SMA)
06:29AM 39.8822 -75.5494 189° South 150 173 4,200 -1,800 Descending FAA TRACON SMA TRACON (SMA)
06:29AM 39.8642 -75.5431 165° South 160 184 3,400 -1,680 Descending FAA TRACON SMA TRACON (SMA)
06:30AM 39.8497 -75.5381 165° South 171 197 3,100 -780 Descending FAA TRACON SMA TRACON (SMA)
06:30AM 39.8361 -75.5331 164° South 173 199 2,900 -1,080 Descending FAA TRACON SMA TRACON (SMA)
06:30AM 39.8236 -75.5158 133° Southeast 199 229 2,400 -1,080 Descending FAA TRACON SMA TRACON (SMA)
06:31AM 39.8208 -75.4947 100° East 186 214 2,200 -660 Descending FAA TRACON SMA TRACON (SMA)
06:31AM 39.8194 -75.4758 95° East 181 208 2,000 -360 Descending FAA TRACON SMA TRACON (SMA)
06:31AM 39.8258 -75.4514 71° East 175 201 2,000  Level FAA TRACON SMA TRACON (SMA)